Ware, Illinois
Current Conditions -  °F | °C
As of 12:53 AM on Wednesday 22 Oct 2014 (Local Time) from KCGI Reporting Station
Clear Clear  
Wind Chill: 49°   Ceiling: Unl
Heat Index: 49°   Visibility: 10mi
Dew Point: 43°   Wind: 3mph
Humidity: 80%   Direction: 50°NE
Pressure: 30.18"   Gusts: NA
Location:  37.4256°N, 89.3457°W
Report Text: KCGI 220553Z AUTO 05003KT 10SM CLR 09/06 A3018 RMK AO2 SLP218 T00940061 10144 20078 402220044 51007 TSNO
Loading
Personal Weather Stations






























Interactive Weather Map
Tropical Storm Tracking
New forecast layout! Learn more

10-Day Weather Forecast

Advertisements
Track Severe Weather on mobile